createdAt,value
2017-12-11T00:00:06.089Z,0
2017-12-11T00:01:05.259Z,0
2017-12-11T00:02:05.518Z,0
2017-12-11T00:03:06.461Z,0
2017-12-11T00:04:05.760Z,0
2017-12-11T00:05:06.295Z,0
2017-12-11T00:06:06.058Z,0
2017-12-11T00:07:06.273Z,0
2017-12-11T00:08:06.496Z,0
2017-12-11T00:09:06.511Z,0
2017-12-11T00:10:06.443Z,0
2017-12-11T00:11:07.204Z,0
2017-12-11T00:12:06.669Z,0
2017-12-11T00:13:07.070Z,0
2017-12-11T00:14:07.441Z,0
2017-12-11T00:15:07.647Z,0
2017-12-11T00:16:07.640Z,0
2017-12-11T00:17:07.764Z,0
2017-12-11T00:18:07.885Z,0
2017-12-11T00:19:08.018Z,0
2017-12-11T00:20:08.062Z,0
2017-12-11T00:21:07.397Z,0
2017-12-11T00:22:07.840Z,0
2017-12-11T00:23:08.425Z,0
2017-12-11T00:24:07.880Z,0
2017-12-11T00:25:08.266Z,0
2017-12-11T00:26:08.261Z,0
2017-12-11T00:27:07.573Z,0
2017-12-11T00:28:08.375Z,0
2017-12-11T00:29:08.366Z,0
2017-12-11T00:30:08.128Z,0
2017-12-11T00:31:08.664Z,0
2017-12-11T00:32:08.892Z,0
2017-12-11T00:33:08.768Z,0
2017-12-11T00:34:08.900Z,0
2017-12-11T00:35:09.259Z,0
2017-12-11T00:36:09.211Z,0
2017-12-11T00:37:10.016Z,0
2017-12-11T00:38:09.997Z,0
2017-12-11T00:39:09.711Z,0
2017-12-11T00:40:10.340Z,0
2017-12-11T00:41:10.189Z,0
2017-12-11T00:42:09.693Z,0
2017-12-11T00:43:25.345Z,0
2017-12-11T00:44:10.925Z,0
2017-12-11T00:45:11.130Z,0
2017-12-11T00:46:10.594Z,0
2017-12-11T00:47:10.932Z,0
2017-12-11T00:48:10.441Z,0
2017-12-11T00:49:11.201Z,0
2017-12-11T00:50:10.951Z,0
2017-12-11T00:51:10.967Z,0
2017-12-11T00:52:11.490Z,0
2017-12-11T00:53:10.750Z,0
2017-12-11T00:54:11.400Z,0
2017-12-11T00:55:11.505Z,0
2017-12-11T00:56:11.518Z,0
2017-12-11T00:57:11.027Z,0
2017-12-11T00:58:11.446Z,0
2017-12-11T00:59:12.292Z,0
2017-12-11T01:00:12.662Z,0
2017-12-11T01:01:11.529Z,0
2017-12-11T01:02:13.427Z,0
2017-12-11T01:03:12.922Z,0
2017-12-11T01:04:12.825Z,0
2017-12-11T01:05:12.110Z,0
2017-12-11T01:06:12.307Z,0
2017-12-11T01:07:14.877Z,0
2017-12-11T01:08:14.326Z,0
2017-12-11T01:09:14.851Z,0
2017-12-11T01:10:14.925Z,0
2017-12-11T01:11:44.301Z,0
2017-12-11T01:12:15.363Z,0
2017-12-11T01:13:15.779Z,0
2017-12-11T01:14:14.774Z,0
2017-12-11T01:15:14.896Z,0
2017-12-11T01:16:14.920Z,0
2017-12-11T01:17:15.789Z,0
2017-12-11T01:18:15.005Z,0
2017-12-11T01:19:15.967Z,0
2017-12-11T01:20:15.621Z,0
2017-12-11T01:21:15.791Z,0
2017-12-11T01:22:15.685Z,0
2017-12-11T01:23:16.590Z,0
2017-12-11T01:24:15.519Z,0
2017-12-11T01:25:16.771Z,0
2017-12-11T01:26:16.386Z,0
2017-12-11T01:27:15.499Z,0
2017-12-11T01:28:15.490Z,0
2017-12-11T01:29:15.922Z,0
2017-12-11T01:30:16.361Z,0
2017-12-11T01:31:16.994Z,0
2017-12-11T01:32:17.408Z,0
2017-12-11T01:33:16.864Z,0
2017-12-11T01:34:17.536Z,0
2017-12-11T01:35:17.545Z,0
2017-12-11T01:36:17.623Z,0
2017-12-11T01:37:17.463Z,0
2017-12-11T01:38:17.155Z,0
2017-12-11T01:39:17.380Z,0
2017-12-11T01:40:17.801Z,0
2017-12-11T01:41:17.844Z,0
2017-12-11T01:42:17.591Z,0
2017-12-11T01:43:18.025Z,0
2017-12-11T01:44:18.203Z,0
2017-12-11T01:45:18.219Z,0
2017-12-11T01:46:18.533Z,0
2017-12-11T01:47:18.753Z,0
2017-12-11T01:48:18.607Z,0
2017-12-11T01:49:18.807Z,0
2017-12-11T01:50:20.960Z,0
2017-12-11T01:51:18.643Z,0
2017-12-11T01:52:18.851Z,0
2017-12-11T01:53:19.542Z,0
2017-12-11T01:54:19.710Z,0
2017-12-11T01:55:19.262Z,0
2017-12-11T01:56:19.455Z,0
2017-12-11T01:57:20.124Z,0
2017-12-11T01:58:20.198Z,0
2017-12-11T01:59:20.139Z,0
2017-12-11T02:00:20.506Z,0
2017-12-11T02:01:20.144Z,0
2017-12-11T02:02:20.456Z,0
2017-12-11T02:03:20.595Z,0
2017-12-11T02:04:21.119Z,0
2017-12-11T02:05:21.076Z,0
2017-12-11T02:06:21.165Z,0
2017-12-11T02:07:20.812Z,0
2017-12-11T02:08:21.217Z,0
2017-12-11T02:09:21.441Z,0
2017-12-11T02:10:21.594Z,0
2017-12-11T02:11:21.968Z,0
2017-12-11T02:12:22.010Z,0
2017-12-11T02:13:22.496Z,0
2017-12-11T02:14:22.482Z,0
2017-12-11T02:15:22.503Z,0
2017-12-11T02:16:22.898Z,0
2017-12-11T02:17:23.324Z,0
2017-12-11T02:18:23.369Z,0
2017-12-11T02:19:23.358Z,0
2017-12-11T02:20:23.728Z,0
2017-12-11T02:21:23.421Z,0
2017-12-11T02:22:23.168Z,0
2017-12-11T02:23:23.377Z,0
2017-12-11T02:24:23.856Z,0
2017-12-11T02:25:24.281Z,0
2017-12-11T02:26:24.655Z,0
2017-12-11T02:27:24.502Z,0
2017-12-11T02:28:25.162Z,0
2017-12-11T02:29:25.202Z,0
2017-12-11T02:30:24.978Z,0
2017-12-11T02:31:25.399Z,0
2017-12-11T02:32:25.984Z,0
2017-12-11T02:33:25.825Z,0
2017-12-11T02:34:25.595Z,0
2017-12-11T02:35:26.276Z,0
2017-12-11T02:36:25.880Z,0
2017-12-11T02:37:26.770Z,0
2017-12-11T02:38:26.549Z,0
2017-12-11T02:39:26.279Z,0
2017-12-11T02:40:26.869Z,0
2017-12-11T02:41:26.528Z,0
2017-12-11T02:42:27.151Z,0
2017-12-11T02:43:27.424Z,0
2017-12-11T02:44:27.174Z,0
2017-12-11T02:45:27.647Z,0
2017-12-11T02:46:27.616Z,0
2017-12-11T02:47:32.644Z,0
2017-12-11T02:48:33.072Z,0
2017-12-11T02:49:33.114Z,0
2017-12-11T02:50:33.268Z,0
2017-12-11T02:51:33.176Z,0
2017-12-11T02:52:32.906Z,0
2017-12-11T02:53:33.561Z,0
2017-12-11T02:54:33.329Z,0
2017-12-11T02:55:33.729Z,0
2017-12-11T02:56:34.165Z,0
2017-12-11T02:57:33.629Z,0
2017-12-11T02:58:34.183Z,0
2017-12-11T02:59:34.241Z,0
2017-12-11T03:00:34.413Z,0
2017-12-11T03:01:34.602Z,0
2017-12-11T03:02:34.498Z,0
2017-12-11T03:03:36.683Z,0
2017-12-11T03:04:34.268Z,0
2017-12-11T03:05:34.403Z,0
2017-12-11T03:06:34.977Z,0
2017-12-11T03:07:35.867Z,0
2017-12-11T03:08:36.030Z,0
2017-12-11T03:09:35.823Z,0
2017-12-11T03:10:37.441Z,0
2017-12-11T03:11:35.934Z,0
2017-12-11T03:12:36.320Z,0
2017-12-11T03:13:35.781Z,0
2017-12-11T03:14:36.005Z,0
2017-12-11T03:15:36.017Z,0
2017-12-11T03:16:36.523Z,0
2017-12-11T03:17:36.747Z,0
2017-12-11T03:18:36.495Z,0
2017-12-11T03:19:36.935Z,0
2017-12-11T03:20:36.959Z,0
2017-12-11T03:21:36.920Z,0
2017-12-11T03:22:37.204Z,0
2017-12-11T03:23:36.962Z,0
2017-12-11T03:24:36.711Z,0
2017-12-11T03:25:37.410Z,0
2017-12-11T03:26:36.893Z,0
2017-12-11T03:27:37.321Z,0
2017-12-11T03:28:37.731Z,0
2017-12-11T03:29:37.899Z,0
2017-12-11T03:30:53.253Z,0
2017-12-11T03:31:53.200Z,0
2017-12-11T03:32:52.477Z,0
2017-12-11T03:33:53.589Z,0
2017-12-11T03:34:53.284Z,0
2017-12-11T03:35:53.034Z,0
2017-12-11T03:36:52.941Z,0
2017-12-11T03:37:54.242Z,0
2017-12-11T03:38:53.497Z,0
2017-12-11T03:39:54.961Z,0
2017-12-11T03:40:53.861Z,0
2017-12-11T03:41:54.636Z,0
2017-12-11T03:42:55.147Z,0
2017-12-11T03:43:55.267Z,0
2017-12-11T03:44:53.989Z,0
2017-12-11T03:45:54.786Z,0
2017-12-11T03:46:54.452Z,0
2017-12-11T03:47:56.285Z,0
2017-12-11T03:48:55.175Z,0
2017-12-11T03:49:55.199Z,0
2017-12-11T03:50:54.361Z,0
2017-12-11T03:51:55.128Z,0
2017-12-11T03:52:55.213Z,0
2017-12-11T03:53:54.941Z,0
2017-12-11T03:54:55.621Z,0
2017-12-11T03:55:55.411Z,0
2017-12-11T03:56:55.413Z,0
2017-12-11T03:57:55.969Z,0
2017-12-11T03:58:55.380Z,0
2017-12-11T03:59:55.926Z,0
2017-12-11T04:00:55.949Z,0
2017-12-11T04:01:55.789Z,0
2017-12-11T04:02:56.222Z,0
2017-12-11T04:04:10.951Z,0
2017-12-11T04:04:56.820Z,0
2017-12-11T04:05:56.279Z,0
2017-12-11T04:06:56.537Z,0
2017-12-11T04:08:05.297Z,0
2017-12-11T04:09:04.978Z,0
2017-12-11T04:10:05.483Z,0
2017-12-11T04:11:05.761Z,0
2017-12-11T04:12:05.452Z,0
2017-12-11T04:13:05.621Z,0
2017-12-11T04:14:06.248Z,0
2017-12-11T04:15:06.464Z,0
2017-12-11T04:16:06.420Z,0
2017-12-11T04:17:06.151Z,0
2017-12-11T04:18:06.559Z,0
2017-12-11T04:19:06.505Z,0
2017-12-11T04:20:07.220Z,0
2017-12-11T04:21:07.126Z,0
2017-12-11T04:22:06.960Z,0
2017-12-11T04:23:07.730Z,0
2017-12-11T04:24:07.224Z,0
2017-12-11T04:25:07.151Z,0
2017-12-11T04:26:07.868Z,0
2017-12-11T04:27:08.957Z,0
2017-12-11T04:28:08.043Z,0
2017-12-11T04:29:08.164Z,0
2017-12-11T04:30:07.294Z,0
2017-12-11T04:31:08.176Z,0
2017-12-11T04:32:07.536Z,0
2017-12-11T04:33:08.264Z,0
2017-12-11T04:34:08.719Z,0
2017-12-11T04:35:08.751Z,0
2017-12-11T04:36:08.644Z,0
2017-12-11T04:37:08.470Z,0
2017-12-11T04:38:08.882Z,0
2017-12-11T04:39:08.644Z,0
2017-12-11T04:40:08.850Z,0
2017-12-11T04:41:08.893Z,0
2017-12-11T04:42:10.511Z,0
2017-12-11T04:43:08.602Z,0
2017-12-11T04:44:09.318Z,0
2017-12-11T04:45:09.517Z,0
2017-12-11T04:46:09.223Z,0
2017-12-11T04:47:09.358Z,0
2017-12-11T04:48:10.645Z,0
2017-12-11T04:49:11.028Z,0
2017-12-11T04:50:09.720Z,0
2017-12-11T04:51:09.781Z,0
2017-12-11T04:52:09.935Z,0
2017-12-11T04:53:10.364Z,0
2017-12-11T04:54:10.844Z,0
2017-12-11T04:55:11.566Z,0
2017-12-11T04:56:10.824Z,0
2017-12-11T04:57:10.835Z,0
2017-12-11T04:58:11.035Z,0
2017-12-11T04:59:11.448Z,0
2017-12-11T05:01:10.653Z,0
2017-12-11T05:01:41.429Z,0
2017-12-11T05:02:26.526Z,0
2017-12-11T05:03:27.044Z,0
2017-12-11T05:04:27.249Z,0
2017-12-11T05:05:26.567Z,0
2017-12-11T05:06:27.135Z,0
2017-12-11T05:07:27.019Z,0
2017-12-11T05:08:27.529Z,0
2017-12-11T05:09:28.028Z,0
2017-12-11T05:10:28.005Z,0
2017-12-11T05:11:28.441Z,0
2017-12-11T05:12:28.921Z,0
2017-12-11T05:13:28.668Z,0
2017-12-11T05:14:29.210Z,0
2017-12-11T05:15:29.457Z,0
2017-12-11T05:16:29.867Z,0
2017-12-11T05:17:30.571Z,0
2017-12-11T05:18:30.610Z,0
2017-12-11T05:19:30.380Z,0
2017-12-11T05:20:30.857Z,0
2017-12-11T05:21:30.053Z,0
2017-12-11T05:22:30.575Z,0
2017-12-11T05:23:31.273Z,0
2017-12-11T05:24:31.347Z,0
2017-12-11T05:25:31.349Z,0
2017-12-11T05:26:31.632Z,0
2017-12-11T05:27:31.996Z,0
2017-12-11T05:28:32.028Z,0
2017-12-11T05:29:31.995Z,0
2017-12-11T05:30:32.243Z,0
2017-12-11T05:31:31.967Z,0
2017-12-11T05:32:32.032Z,0
2017-12-11T05:33:32.565Z,0
2017-12-11T05:34:33.109Z,0
2017-12-11T05:35:32.765Z,0
2017-12-11T05:36:32.580Z,0
2017-12-11T05:37:32.820Z,0
2017-12-11T05:38:32.610Z,0
2017-12-11T05:39:32.249Z,0
2017-12-11T05:40:32.540Z,0
2017-12-11T05:41:32.296Z,0
2017-12-11T05:42:32.532Z,0
2017-12-11T05:43:33.574Z,0
2017-12-11T05:44:33.131Z,0
2017-12-11T05:45:33.891Z,0
2017-12-11T05:46:33.103Z,0
2017-12-11T05:47:33.867Z,0
2017-12-11T05:48:33.896Z,0
2017-12-11T05:49:33.948Z,0
2017-12-11T05:50:33.570Z,0
2017-12-11T05:51:34.342Z,0
2017-12-11T05:52:34.458Z,0
2017-12-11T05:53:34.137Z,0
2017-12-11T05:54:35.161Z,0
2017-12-11T05:55:35.117Z,0
2017-12-11T05:56:35.375Z,0
2017-12-11T05:57:34.922Z,0
2017-12-11T05:58:34.425Z,0
2017-12-11T05:59:35.173Z,0
2017-12-11T06:00:40.338Z,0
2017-12-11T06:01:40.190Z,0
2017-12-11T06:02:40.329Z,0
2017-12-11T06:03:40.491Z,0
2017-12-11T06:04:40.804Z,0
2017-12-11T06:05:41.526Z,0
2017-12-11T06:06:41.377Z,0
2017-12-11T06:07:41.609Z,0
2017-12-11T06:08:41.336Z,0
2017-12-11T06:09:41.792Z,0
2017-12-11T06:10:42.460Z,0
2017-12-11T06:11:42.831Z,0
2017-12-11T06:12:42.632Z,0
2017-12-11T06:13:43.053Z,0
2017-12-11T06:14:43.471Z,0
2017-12-11T06:15:43.903Z,0
2017-12-11T06:16:44.575Z,0
2017-12-11T06:17:44.436Z,0
2017-12-11T06:18:44.882Z,0
2017-12-11T06:19:45.391Z,0
2017-12-11T06:20:45.083Z,0
2017-12-11T06:21:45.094Z,0
2017-12-11T06:22:45.385Z,0
2017-12-11T06:23:45.825Z,0
2017-12-11T06:24:45.671Z,0
2017-12-11T06:25:45.412Z,0
2017-12-11T06:26:46.160Z,0
2017-12-11T06:27:45.857Z,0
2017-12-11T06:28:46.065Z,0
2017-12-11T06:29:46.006Z,0
2017-12-11T06:30:46.249Z,0
2017-12-11T06:31:46.629Z,0
2017-12-11T06:32:47.215Z,0
2017-12-11T06:33:47.019Z,0
2017-12-11T06:34:47.500Z,0
2017-12-11T06:35:47.687Z,0
2017-12-11T06:36:48.181Z,0
2017-12-11T06:37:48.188Z,0
2017-12-11T06:38:48.171Z,0
2017-12-11T06:39:48.884Z,0
2017-12-11T06:40:48.632Z,0
2017-12-11T06:41:49.077Z,0
2017-12-11T06:42:49.819Z,0
2017-12-11T06:43:50.246Z,0
2017-12-11T06:44:50.306Z,0
2017-12-11T06:45:50.393Z,0
2017-12-11T06:46:50.550Z,0
2017-12-11T06:47:50.396Z,0
2017-12-11T06:48:50.054Z,0
2017-12-11T06:49:50.719Z,0
2017-12-11T06:50:49.703Z,0
2017-12-11T06:51:50.531Z,0
2017-12-11T06:52:50.705Z,0
2017-12-11T06:53:51.451Z,0
2017-12-11T06:54:51.442Z,0
2017-12-11T06:55:51.189Z,0
2017-12-11T06:56:51.068Z,0
2017-12-11T06:57:51.778Z,0
2017-12-11T06:58:52.210Z,5
2017-12-11T06:59:52.200Z,5
2017-12-11T07:00:54.074Z,5
2017-12-11T07:01:52.847Z,5
2017-12-11T07:02:52.859Z,5
2017-12-11T07:03:52.890Z,5
2017-12-11T07:04:52.921Z,5
2017-12-11T07:05:52.703Z,5
2017-12-11T07:06:53.140Z,10
2017-12-11T07:07:53.341Z,10
2017-12-11T07:08:53.056Z,10
2017-12-11T07:09:53.921Z,10
2017-12-11T07:10:53.511Z,10
2017-12-11T07:11:54.233Z,10
2017-12-11T07:12:54.707Z,15
2017-12-11T07:13:54.618Z,15
2017-12-11T07:14:54.767Z,15
2017-12-11T07:15:54.776Z,15
2017-12-11T07:16:54.830Z,15
2017-12-11T07:17:54.340Z,15
2017-12-11T07:18:54.782Z,20
2017-12-11T07:19:55.029Z,20
2017-12-11T07:20:55.251Z,20
2017-12-11T07:21:56.035Z,20
2017-12-11T07:22:55.484Z,20
2017-12-11T07:23:56.046Z,20
2017-12-11T07:24:56.251Z,25
2017-12-11T07:25:55.904Z,25
2017-12-11T07:26:55.678Z,25
2017-12-11T07:27:55.857Z,25
2017-12-11T07:28:57.016Z,30
2017-12-11T07:29:56.739Z,30
2017-12-11T07:30:56.704Z,30
2017-12-11T07:32:10.756Z,35
2017-12-11T07:32:56.453Z,35
2017-12-11T07:33:57.233Z,35
2017-12-11T07:34:57.235Z,40
2017-12-11T07:35:57.927Z,40
2017-12-11T07:36:56.551Z,40
2017-12-11T07:37:57.015Z,45
2017-12-11T07:38:59.138Z,45
2017-12-11T07:39:59.713Z,50
2017-12-11T07:40:58.020Z,50
2017-12-11T07:41:58.310Z,55
2017-12-11T07:42:58.631Z,60
2017-12-11T07:43:58.636Z,60
2017-12-11T07:44:58.256Z,65
2017-12-11T07:45:58.845Z,65
2017-12-11T07:46:58.482Z,70
2017-12-11T07:47:58.212Z,70
2017-12-11T07:48:58.948Z,75
2017-12-11T07:49:58.655Z,75
2017-12-11T07:50:59.403Z,75
2017-12-11T07:51:59.578Z,75
2017-12-11T07:53:00.032Z,80
2017-12-11T07:54:00.055Z,80
2017-12-11T07:55:00.340Z,80
2017-12-11T07:56:01.160Z,80
2017-12-11T07:57:01.071Z,80
2017-12-11T07:58:00.860Z,85
2017-12-11T07:59:00.895Z,85
2017-12-11T08:00:00.671Z,90
2017-12-11T08:01:01.384Z,95
2017-12-11T08:02:01.154Z,95
2017-12-11T08:03:01.327Z,100
2017-12-11T08:04:01.060Z,105
2017-12-11T08:05:01.503Z,110
2017-12-11T08:06:01.952Z,110
2017-12-11T08:07:01.953Z,105
2017-12-11T08:08:02.314Z,100
2017-12-11T08:09:02.263Z,95
2017-12-11T08:10:03.079Z,90
2017-12-11T08:11:02.801Z,90
2017-12-11T08:12:02.198Z,90
2017-12-11T08:13:03.194Z,90
2017-12-11T08:14:03.877Z,90
2017-12-11T08:15:02.787Z,90
2017-12-11T08:16:03.305Z,95
2017-12-11T08:17:03.006Z,100
2017-12-11T08:18:03.743Z,105
2017-12-11T08:19:04.010Z,110
2017-12-11T08:20:03.789Z,115
2017-12-11T08:21:03.787Z,110
2017-12-11T08:22:03.722Z,110
2017-12-11T08:23:04.130Z,110
2017-12-11T08:24:04.614Z,110
2017-12-11T08:25:05.335Z,110
2017-12-11T08:26:04.256Z,115
2017-12-11T08:27:04.830Z,115
2017-12-11T08:28:05.008Z,115
2017-12-11T08:29:04.442Z,110
2017-12-11T08:30:05.392Z,115
2017-12-11T08:31:05.696Z,115
2017-12-11T08:32:06.952Z,115
2017-12-11T08:33:04.991Z,115
2017-12-11T08:34:05.140Z,120
2017-12-11T08:35:05.541Z,125
2017-12-11T08:36:05.375Z,125
2017-12-11T08:37:05.855Z,130
2017-12-11T08:38:06.865Z,130
2017-12-11T08:39:21.825Z,130
2017-12-11T08:40:06.243Z,130
2017-12-11T08:41:05.991Z,130
2017-12-11T08:42:10.916Z,130
2017-12-11T08:43:10.740Z,130
2017-12-11T08:44:11.807Z,125
2017-12-11T08:45:11.540Z,125
2017-12-11T08:46:11.964Z,125
2017-12-11T08:47:12.535Z,120
2017-12-11T08:48:12.936Z,120
2017-12-11T08:49:13.886Z,120
2017-12-11T08:50:12.882Z,115
2017-12-11T08:51:14.120Z,115
2017-12-11T08:52:11.540Z,115
2017-12-11T08:53:12.659Z,115
2017-12-11T08:54:11.727Z,115
2017-12-11T08:55:12.221Z,120
2017-12-11T08:56:12.724Z,120
2017-12-11T08:57:12.028Z,120
2017-12-11T08:58:11.459Z,120
2017-12-11T08:59:12.178Z,115
2017-12-11T09:00:11.517Z,110
2017-12-11T09:01:12.008Z,110
2017-12-11T09:02:12.015Z,115
2017-12-11T09:03:11.388Z,115
2017-12-11T09:04:12.320Z,120
2017-12-11T09:05:12.986Z,125
2017-12-11T09:06:13.110Z,125
2017-12-11T09:07:13.231Z,130
2017-12-11T09:08:12.919Z,130
2017-12-11T09:09:12.799Z,130
2017-12-11T09:10:13.814Z,125
2017-12-11T09:11:14.432Z,120
2017-12-11T09:12:13.954Z,120
2017-12-11T09:13:13.670Z,120
2017-12-11T09:14:12.772Z,125
2017-12-11T09:15:12.751Z,130
2017-12-11T09:16:12.892Z,130
2017-12-11T09:17:14.031Z,130
2017-12-11T09:18:13.631Z,135
2017-12-11T09:19:14.789Z,135
2017-12-11T09:20:13.180Z,145
2017-12-11T09:21:14.224Z,145
2017-12-11T09:22:14.482Z,145
2017-12-11T09:23:13.453Z,145
2017-12-11T09:24:14.339Z,145
2017-12-11T09:25:14.712Z,135
2017-12-11T09:26:14.988Z,125
2017-12-11T09:27:14.169Z,120
2017-12-11T09:28:29.878Z,110
2017-12-11T09:29:14.824Z,110
2017-12-11T09:30:14.667Z,110
2017-12-11T09:31:14.942Z,110
2017-12-11T09:32:14.439Z,115
2017-12-11T09:33:14.133Z,120
2017-12-11T09:34:14.638Z,120
2017-12-11T09:35:15.497Z,120
2017-12-11T09:36:15.108Z,120
2017-12-11T09:37:16.026Z,115
2017-12-11T09:38:15.957Z,115
2017-12-11T09:39:15.246Z,110
2017-12-11T09:40:15.724Z,110
2017-12-11T09:41:15.964Z,110
2017-12-11T09:42:16.447Z,105
2017-12-11T09:43:16.500Z,105
2017-12-11T09:44:16.063Z,100
2017-12-11T09:45:16.536Z,100
2017-12-11T09:46:16.730Z,95
2017-12-11T09:47:16.497Z,95
2017-12-11T09:48:16.841Z,100
2017-12-11T09:49:16.971Z,100
2017-12-11T09:50:17.602Z,100
2017-12-11T09:51:17.172Z,105
2017-12-11T09:52:17.166Z,110
2017-12-11T09:53:17.910Z,115
2017-12-11T09:54:17.641Z,115
2017-12-11T09:55:17.849Z,115
2017-12-11T09:56:17.324Z,120
2017-12-11T09:57:18.390Z,125
2017-12-11T09:58:18.760Z,130
2017-12-11T09:59:18.048Z,135
2017-12-11T10:00:18.262Z,135
2017-12-11T10:01:19.574Z,135
2017-12-11T10:02:19.349Z,135
2017-12-11T10:03:19.000Z,135
2017-12-11T10:04:18.839Z,135
2017-12-11T10:05:18.522Z,135
2017-12-11T10:06:33.445Z,130
2017-12-11T10:07:18.922Z,130
2017-12-11T10:08:19.238Z,125
2017-12-11T10:09:18.640Z,125
2017-12-11T10:10:19.329Z,120
2017-12-11T10:11:19.726Z,115
2017-12-11T10:12:19.515Z,110
2017-12-11T10:13:19.328Z,110
2017-12-11T10:14:19.567Z,110
2017-12-11T10:15:20.005Z,105
2017-12-11T10:16:19.755Z,105
2017-12-11T10:17:19.958Z,105
2017-12-11T10:18:20.006Z,105
2017-12-11T10:19:19.788Z,100
2017-12-11T10:20:20.914Z,100
2017-12-11T10:21:20.151Z,95
2017-12-11T10:22:20.318Z,95
2017-12-11T10:23:21.042Z,95
2017-12-11T10:24:20.814Z,95
2017-12-11T10:25:20.818Z,90
2017-12-11T10:26:21.472Z,90
2017-12-11T10:27:21.057Z,90
2017-12-11T10:28:22.330Z,90
2017-12-11T10:29:21.299Z,85
2017-12-11T10:30:35.693Z,80
2017-12-11T10:31:21.511Z,80
2017-12-11T10:32:20.937Z,80
2017-12-11T10:33:23.465Z,80
2017-12-11T10:34:21.587Z,80
2017-12-11T10:35:21.812Z,80
2017-12-11T10:36:22.865Z,80
2017-12-11T10:37:23.123Z,80
2017-12-11T10:38:22.025Z,85
2017-12-11T10:39:22.709Z,85
2017-12-11T10:40:22.580Z,85
2017-12-11T10:41:24.175Z,85
2017-12-11T10:42:23.938Z,80
2017-12-11T10:43:23.773Z,85
2017-12-11T10:44:23.332Z,80
2017-12-11T10:45:23.756Z,80
2017-12-11T10:46:24.235Z,80
2017-12-11T10:47:24.054Z,80
2017-12-11T10:48:24.248Z,85
2017-12-11T10:49:25.174Z,85
2017-12-11T10:50:24.155Z,85
2017-12-11T10:51:24.289Z,90
2017-12-11T10:52:24.085Z,90
2017-12-11T10:53:23.875Z,90
2017-12-11T10:54:24.349Z,90
2017-12-11T10:55:25.025Z,90
2017-12-11T10:56:25.413Z,85
2017-12-11T10:57:25.695Z,85
2017-12-11T10:58:26.272Z,85
2017-12-11T10:59:25.235Z,85
2017-12-11T11:00:24.800Z,85
2017-12-11T11:01:25.942Z,85
2017-12-11T11:02:25.749Z,85
2017-12-11T11:03:25.498Z,85
2017-12-11T11:04:25.440Z,85
2017-12-11T11:05:40.783Z,85
2017-12-11T11:06:25.556Z,85
2017-12-11T11:07:25.171Z,90
2017-12-11T11:08:26.088Z,85
2017-12-11T11:09:26.137Z,85
2017-12-11T11:10:25.257Z,85
2017-12-11T11:11:27.182Z,80
2017-12-11T11:12:25.760Z,80
2017-12-11T11:13:27.478Z,75
2017-12-11T11:14:25.858Z,70
2017-12-11T11:15:25.925Z,70
2017-12-11T11:16:26.002Z,70
2017-12-11T11:17:26.541Z,70
2017-12-11T11:18:25.841Z,65
2017-12-11T11:19:27.098Z,65
2017-12-11T11:20:26.330Z,65
2017-12-11T11:21:27.107Z,60
2017-12-11T11:22:27.074Z,60
2017-12-11T11:23:26.872Z,60
2017-12-11T11:24:26.539Z,60
2017-12-11T11:25:27.026Z,60
2017-12-11T11:26:26.701Z,60
2017-12-11T11:27:27.113Z,60
2017-12-11T11:28:27.905Z,60
2017-12-11T11:29:28.950Z,65
2017-12-11T11:30:27.607Z,65
2017-12-11T11:31:27.757Z,65
2017-12-11T11:32:28.189Z,60
2017-12-11T11:33:29.139Z,60
2017-12-11T11:34:28.649Z,60
2017-12-11T11:35:30.123Z,60
2017-12-11T11:36:29.386Z,60
2017-12-11T11:37:29.236Z,60
2017-12-11T11:38:28.897Z,60
2017-12-11T11:39:29.008Z,60
2017-12-11T11:40:29.729Z,60
2017-12-11T11:41:30.419Z,65
2017-12-11T11:42:30.973Z,65
2017-12-11T11:43:29.688Z,65
2017-12-11T11:44:29.869Z,65
2017-12-11T11:45:29.857Z,65
2017-12-11T11:46:30.777Z,65
2017-12-11T11:47:44.776Z,65
2017-12-11T11:48:30.763Z,65
2017-12-11T11:49:30.580Z,65
2017-12-11T11:50:30.535Z,65
2017-12-11T11:51:30.704Z,70
2017-12-11T11:52:31.342Z,70
2017-12-11T11:53:30.459Z,65
2017-12-11T11:54:30.656Z,65
2017-12-11T11:55:30.869Z,60
2017-12-11T11:56:30.986Z,60
2017-12-11T11:57:46.600Z,60
2017-12-11T11:58:31.697Z,60
2017-12-11T11:59:31.661Z,60
2017-12-11T12:00:31.960Z,65
2017-12-11T12:01:34.952Z,65
2017-12-11T12:02:33.280Z,65
2017-12-11T12:03:33.468Z,65
2017-12-11T12:04:33.452Z,65
2017-12-11T12:05:33.507Z,65
2017-12-11T12:06:33.982Z,65
2017-12-11T12:07:33.979Z,65
2017-12-11T12:08:33.624Z,65
2017-12-11T12:09:33.404Z,70
2017-12-11T12:10:34.378Z,70
2017-12-11T12:11:33.989Z,70
2017-12-11T12:12:33.770Z,70
2017-12-11T12:13:33.723Z,70
2017-12-11T12:14:33.993Z,70
2017-12-11T12:15:34.436Z,65
2017-12-11T12:16:34.086Z,65
2017-12-11T12:17:34.354Z,65
2017-12-11T12:18:35.080Z,65
2017-12-11T12:19:34.238Z,65
2017-12-11T12:20:35.566Z,65
2017-12-11T12:21:34.805Z,65
2017-12-11T12:22:34.829Z,65
2017-12-11T12:23:35.010Z,65
2017-12-11T12:24:35.270Z,65
2017-12-11T12:25:38.205Z,65
2017-12-11T12:26:36.070Z,65
2017-12-11T12:27:35.242Z,65
2017-12-11T12:28:35.822Z,65
2017-12-11T12:29:38.196Z,65
2017-12-11T12:30:37.849Z,70
2017-12-11T12:31:36.668Z,70
2017-12-11T12:32:37.013Z,75
2017-12-11T12:33:36.370Z,75
2017-12-11T12:34:38.050Z,75
2017-12-11T12:35:37.421Z,70
2017-12-11T12:36:37.552Z,70
2017-12-11T12:37:38.674Z,70
2017-12-11T12:38:37.404Z,70
2017-12-11T12:39:37.478Z,70
2017-12-11T12:40:36.949Z,70
2017-12-11T12:41:37.450Z,75
2017-12-11T12:42:37.899Z,75
2017-12-11T12:43:38.365Z,75
2017-12-11T12:44:37.464Z,70
2017-12-11T12:45:38.679Z,70
2017-12-11T12:46:38.939Z,70
2017-12-11T12:47:38.530Z,70
2017-12-11T12:48:39.856Z,70
2017-12-11T12:49:38.948Z,70
2017-12-11T12:50:39.755Z,70
2017-12-11T12:51:38.259Z,70
2017-12-11T12:52:38.876Z,65
2017-12-11T12:53:38.856Z,65
2017-12-11T12:54:39.272Z,65
2017-12-11T12:55:39.197Z,65
2017-12-11T12:56:39.021Z,60
2017-12-11T12:57:39.072Z,60
2017-12-11T12:58:38.732Z,60
2017-12-11T12:59:39.103Z,60
2017-12-11T13:00:39.326Z,60
2017-12-11T13:01:55.727Z,65
2017-12-11T13:02:41.545Z,65
2017-12-11T13:03:41.998Z,65
2017-12-11T13:04:42.428Z,65
2017-12-11T13:05:42.572Z,65
2017-12-11T13:06:42.728Z,65
2017-12-11T13:07:42.638Z,65
2017-12-11T13:08:43.823Z,65
2017-12-11T13:10:43.362Z,65
2017-12-11T13:11:43.560Z,65
2017-12-11T13:12:50.027Z,65
2017-12-11T13:13:48.902Z,70
2017-12-11T13:14:48.657Z,70
2017-12-11T13:15:48.468Z,70
2017-12-11T13:16:49.118Z,75
2017-12-11T13:17:49.237Z,75
2017-12-11T13:18:48.811Z,75
2017-12-11T13:19:49.396Z,75
2017-12-11T13:20:49.077Z,75
2017-12-11T13:21:49.142Z,75
2017-12-11T13:22:48.549Z,75
2017-12-11T13:23:49.113Z,75
2017-12-11T13:24:48.984Z,75
2017-12-11T13:25:50.140Z,75
2017-12-11T13:26:50.233Z,70
2017-12-11T13:27:49.907Z,70
2017-12-11T13:28:49.683Z,70
2017-12-11T13:29:49.805Z,70
2017-12-11T13:30:49.420Z,65
2017-12-11T13:31:49.878Z,65
2017-12-11T13:32:50.246Z,60
2017-12-11T13:33:50.243Z,55
2017-12-11T13:34:55.602Z,55
2017-12-11T13:35:55.744Z,55
2017-12-11T13:36:54.818Z,55
2017-12-11T13:37:55.058Z,55
2017-12-11T13:38:57.276Z,55
2017-12-11T13:39:55.681Z,55
2017-12-11T13:40:55.377Z,55
2017-12-11T13:41:55.426Z,55
2017-12-11T13:42:55.760Z,55
2017-12-11T13:43:55.740Z,55
2017-12-11T13:44:56.607Z,55
2017-12-11T13:45:56.870Z,55
2017-12-11T13:46:58.055Z,50
2017-12-11T13:47:57.199Z,50
2017-12-11T13:48:56.767Z,45
2017-12-11T13:49:57.025Z,40
2017-12-11T13:50:57.283Z,40
2017-12-11T13:51:56.997Z,35
2017-12-11T13:52:57.416Z,35
2017-12-11T13:53:56.869Z,35
2017-12-11T13:54:56.829Z,30
2017-12-11T13:55:56.627Z,30
2017-12-11T13:56:56.959Z,30
2017-12-11T13:57:56.403Z,25
2017-12-11T13:58:56.887Z,25
2017-12-11T13:59:57.164Z,25
2017-12-11T14:00:57.316Z,25
2017-12-11T14:01:59.795Z,25
2017-12-11T14:02:57.957Z,20
2017-12-11T14:03:58.760Z,20
2017-12-11T14:04:58.495Z,15
2017-12-11T14:05:58.606Z,15
2017-12-11T14:06:57.641Z,15
2017-12-11T14:07:59.584Z,15
2017-12-11T14:08:59.875Z,15
2017-12-11T14:09:59.637Z,10
2017-12-11T14:11:13.390Z,10
2017-12-11T14:11:59.264Z,10
2017-12-11T14:12:59.438Z,10
2017-12-11T14:13:58.650Z,10
2017-12-11T14:15:43.778Z,10
2017-12-11T14:16:12.035Z,10
2017-12-11T14:17:11.069Z,10
2017-12-11T14:18:11.743Z,10
2017-12-11T14:19:11.580Z,5
2017-12-11T14:20:12.412Z,5
2017-12-11T14:21:11.154Z,5
2017-12-11T14:22:11.265Z,5
2017-12-11T14:23:11.856Z,5
2017-12-11T14:24:11.392Z,5
2017-12-11T14:25:12.738Z,5
2017-12-11T14:26:12.715Z,5
2017-12-11T14:27:11.656Z,5
2017-12-11T14:28:11.069Z,5
2017-12-11T14:29:12.192Z,5
2017-12-11T14:30:11.362Z,5